VOZ441 YPAD-YSSY
Flight info
| Callsign | VOZ441 |
|---|---|
| Flight time | 1h 32m |
| Altitude | 37000 |
| Route | AD H247 CULIN Y59 TESAT |
| Aircraft | B738/M-SDE2E3FGHIRWXY/LB1 |
Departure
| Time | 2026-05-06 08:45 |
|---|---|
| Airport | Adelaide International Airport (YPAD) |
Arrival
| Time | 2026-05-06 10:17 |
|---|---|
| Airport | Sydney Kingsford Smith International Airport (YSSY) |
| Time | Latitude | Longitude | Altitude | Speed | Heading |
|---|---|---|---|---|---|
| 2026-05-06 08:15 | -34.93807 | 138.54031 | 26 ft | 0 kts | 321° |
| 2026-05-06 08:38 | -34.93814 | 138.54039 | 25 ft | 4 kts | 321° |
| 2026-05-06 08:38 | -34.93835 | 138.54060 | 26 ft | 4 kts | 320° |
| 2026-05-06 08:38 | -34.93853 | 138.54077 | 30 ft | 4 kts | 335° |
| 2026-05-06 08:38 | -34.93876 | 138.54080 | 30 ft | 4 kts | 26° |
| 2026-05-06 08:39 | -34.93896 | 138.54060 | 30 ft | 3 kts | 50° |
| 2026-05-06 08:39 | -34.93913 | 138.54036 | 27 ft | 4 kts | 50° |
| 2026-05-06 08:39 | -34.93930 | 138.54011 | 30 ft | 4 kts | 50° |
| 2026-05-06 08:39 | -34.93933 | 138.54006 | 30 ft | 0 kts | 50° |
| 2026-05-06 08:42 | -34.93930 | 138.54011 | 30 ft | 3 kts | 50° |
| 2026-05-06 08:42 | -34.93908 | 138.54043 | 30 ft | 6 kts | 50° |
| 2026-05-06 08:42 | -34.93885 | 138.54090 | 28 ft | 8 kts | 76° |
| 2026-05-06 08:42 | -34.93919 | 138.54164 | 37 ft | 11 kts | 139° |
| 2026-05-06 08:43 | -34.93970 | 138.54216 | 27 ft | 9 kts | 140° |
| 2026-05-06 08:43 | -34.93983 | 138.54228 | 25 ft | 0 kts | 140° |
| 2026-05-06 08:43 | -34.93986 | 138.54231 | 25 ft | 3 kts | 140° |
| 2026-05-06 08:44 | -34.94012 | 138.54258 | 26 ft | 8 kts | 141° |
| 2026-05-06 08:44 | -34.94058 | 138.54298 | 26 ft | 7 kts | 161° |
| 2026-05-06 08:44 | -34.94102 | 138.54271 | 25 ft | 7 kts | 227° |
| 2026-05-06 08:44 | -34.94209 | 138.54115 | 28 ft | 60 kts | 230° |
| 2026-05-06 08:45 | -34.94675 | 138.53445 | 26 ft | 144 kts | 229° |
| 2026-05-06 08:45 | -34.95417 | 138.52368 | 606 ft | 170 kts | 226° |
| 2026-05-06 08:45 | -34.96107 | 138.51427 | 1988 ft | 130 kts | 222° |
| 2026-05-06 08:45 | -34.96741 | 138.50631 | 2609 ft | 142 kts | 220° |
| 2026-05-06 08:46 | -34.97569 | 138.49684 | 2680 ft | 182 kts | 219° |
| 2026-05-06 08:46 | -34.98497 | 138.48645 | 3405 ft | 173 kts | 220° |
| 2026-05-06 08:46 | -34.99329 | 138.47703 | 4570 ft | 150 kts | 222° |
| 2026-05-06 08:46 | -35.00075 | 138.46840 | 5301 ft | 152 kts | 224° |
| 2026-05-06 08:47 | -35.00886 | 138.45898 | 5624 ft | 173 kts | 224° |
| 2026-05-06 08:47 | -35.01778 | 138.44839 | 6169 ft | 177 kts | 225° |
| 2026-05-06 08:47 | -35.02660 | 138.43782 | 6755 ft | 180 kts | 226° |
| 2026-05-06 08:47 | -35.03573 | 138.42668 | 7112 ft | 192 kts | 226° |
| 2026-05-06 08:48 | -35.04519 | 138.41470 | 7594 ft | 196 kts | 227° |
| 2026-05-06 08:48 | -35.05422 | 138.40284 | 8366 ft | 188 kts | 223° |
| 2026-05-06 08:48 | -35.06666 | 138.39630 | 8551 ft | 214 kts | 184° |
| 2026-05-06 08:48 | -35.08144 | 138.40298 | 8749 ft | 250 kts | 145° |
| 2026-05-06 08:49 | -35.09345 | 138.42004 | 8979 ft | 277 kts | 135° |
| 2026-05-06 08:49 | -35.10610 | 138.43780 | 9531 ft | 284 kts | 138° |
| 2026-05-06 08:49 | -35.11613 | 138.45966 | 10229 ft | 304 kts | 108° |
| 2026-05-06 08:49 | -35.11609 | 138.48606 | 10629 ft | 332 kts | 77° |
| 2026-05-06 08:50 | -35.10649 | 138.51262 | 11193 ft | 341 kts | 70° |
| 2026-05-06 08:50 | -35.10167 | 138.54076 | 11808 ft | 339 kts | 91° |
| 2026-05-06 08:50 | -35.10067 | 138.56967 | 12514 ft | 343 kts | 92° |
| 2026-05-06 08:50 | -35.09962 | 138.59904 | 13194 ft | 349 kts | 91° |
| 2026-05-06 08:51 | -35.09826 | 138.62887 | 13870 ft | 355 kts | 90° |
| 2026-05-06 08:51 | -35.09649 | 138.65920 | 14527 ft | 361 kts | 90° |
| 2026-05-06 08:51 | -35.09457 | 138.68948 | 15213 ft | 364 kts | 90° |
| 2026-05-06 08:51 | -35.09252 | 138.72081 | 15929 ft | 367 kts | 90° |
| 2026-05-06 08:52 | -35.09049 | 138.75162 | 16600 ft | 371 kts | 90° |
| 2026-05-06 08:52 | -35.08843 | 138.78329 | 17240 ft | 377 kts | 90° |
| 2026-05-06 08:52 | -35.08635 | 138.81536 | 17923 ft | 381 kts | 90° |
| 2026-05-06 08:52 | -35.08425 | 138.84777 | 18574 ft | 385 kts | 91° |
| 2026-05-06 08:53 | -35.08212 | 138.88046 | 19167 ft | 388 kts | 90° |
| 2026-05-06 08:53 | -35.07996 | 138.91345 | 19770 ft | 391 kts | 90° |
| 2026-05-06 08:53 | -35.07777 | 138.94678 | 20343 ft | 396 kts | 90° |
| 2026-05-06 08:53 | -35.07555 | 138.98043 | 20906 ft | 400 kts | 90° |
| 2026-05-06 08:54 | -35.07330 | 139.01438 | 21485 ft | 403 kts | 90° |
| 2026-05-06 08:54 | -35.07101 | 139.04866 | 22046 ft | 407 kts | 90° |
| 2026-05-06 08:54 | -35.06870 | 139.08324 | 22618 ft | 411 kts | 90° |
| 2026-05-06 08:54 | -35.06635 | 139.11820 | 23159 ft | 415 kts | 90° |
| 2026-05-06 08:55 | -35.06397 | 139.15346 | 23704 ft | 419 kts | 90° |
| 2026-05-06 08:55 | -35.06156 | 139.18906 | 24168 ft | 423 kts | 90° |
| 2026-05-06 08:55 | -35.05912 | 139.22492 | 24619 ft | 426 kts | 89° |
| 2026-05-06 08:55 | -35.05664 | 139.26104 | 25064 ft | 429 kts | 89° |
| 2026-05-06 08:56 | -35.05413 | 139.29751 | 25496 ft | 433 kts | 89° |
| 2026-05-06 08:56 | -35.05159 | 139.33424 | 25934 ft | 436 kts | 88° |
| 2026-05-06 08:56 | -35.04902 | 139.37122 | 26362 ft | 439 kts | 88° |
| 2026-05-06 08:56 | -35.04642 | 139.40850 | 26787 ft | 442 kts | 88° |
| 2026-05-06 08:57 | -35.04379 | 139.44604 | 27204 ft | 446 kts | 88° |
| 2026-05-06 08:57 | -35.04113 | 139.48382 | 27618 ft | 449 kts | 88° |
| 2026-05-06 08:57 | -35.03843 | 139.52188 | 28028 ft | 452 kts | 87° |
| 2026-05-06 08:57 | -35.03571 | 139.56019 | 28434 ft | 455 kts | 87° |
| 2026-05-06 08:58 | -35.03296 | 139.59874 | 28826 ft | 457 kts | 87° |
| 2026-05-06 08:58 | -35.03018 | 139.63751 | 29227 ft | 460 kts | 86° |
| 2026-05-06 08:58 | -35.02737 | 139.67650 | 29617 ft | 463 kts | 86° |
| 2026-05-06 08:58 | -35.02454 | 139.71576 | 29997 ft | 466 kts | 86° |
| 2026-05-06 08:59 | -35.02167 | 139.75522 | 30357 ft | 468 kts | 86° |
| 2026-05-06 08:59 | -35.01877 | 139.79488 | 30660 ft | 471 kts | 86° |
| 2026-05-06 08:59 | -35.01585 | 139.83474 | 30966 ft | 473 kts | 85° |
| 2026-05-06 08:59 | -35.01290 | 139.87481 | 31288 ft | 475 kts | 85° |
| 2026-05-06 09:00 | -35.00993 | 139.91493 | 31628 ft | 476 kts | 85° |
| 2026-05-06 09:00 | -35.00694 | 139.95517 | 31922 ft | 478 kts | 84° |
| 2026-05-06 09:00 | -35.00392 | 139.99564 | 32188 ft | 480 kts | 84° |
| 2026-05-06 09:00 | -35.00088 | 140.03622 | 32462 ft | 482 kts | 84° |
| 2026-05-06 09:01 | -34.99781 | 140.07704 | 32752 ft | 484 kts | 84° |
| 2026-05-06 09:01 | -34.99472 | 140.11793 | 33041 ft | 485 kts | 84° |
| 2026-05-06 09:01 | -34.99160 | 140.15897 | 33314 ft | 487 kts | 83° |
| 2026-05-06 09:01 | -34.98846 | 140.20012 | 33563 ft | 489 kts | 83° |
| 2026-05-06 09:02 | -34.98529 | 140.24148 | 33810 ft | 491 kts | 83° |
| 2026-05-06 09:02 | -34.98211 | 140.28299 | 34054 ft | 492 kts | 83° |
| 2026-05-06 09:02 | -34.97889 | 140.32459 | 34280 ft | 494 kts | 83° |
| 2026-05-06 09:02 | -34.97604 | 140.36647 | 34469 ft | 497 kts | 86° |
| 2026-05-06 09:03 | -34.97527 | 140.40863 | 34656 ft | 499 kts | 89° |
| 2026-05-06 09:03 | -34.97581 | 140.45101 | 34842 ft | 501 kts | 90° |
| 2026-05-06 09:03 | -34.97646 | 140.47915 | 34964 ft | 502 kts | 91° |
| 2026-05-06 09:03 | -34.97749 | 140.52177 | 35144 ft | 504 kts | 90° |
| 2026-05-06 09:04 | -34.97860 | 140.57846 | 35366 ft | 506 kts | 90° |
| 2026-05-06 09:04 | -34.97917 | 140.62145 | 35538 ft | 507 kts | 90° |
| 2026-05-06 09:04 | -34.97955 | 140.66447 | 35707 ft | 509 kts | 89° |
| 2026-05-06 09:04 | -34.97975 | 140.69361 | 35842 ft | 509 kts | 89° |
| 2026-05-06 09:05 | -34.98005 | 140.75078 | 36166 ft | 508 kts | 89° |
| 2026-05-06 09:05 | -34.98025 | 140.79389 | 36398 ft | 508 kts | 89° |
| 2026-05-06 09:05 | -34.98045 | 140.83700 | 36598 ft | 509 kts | 89° |
| 2026-05-06 09:05 | -34.98064 | 140.88011 | 36798 ft | 509 kts | 89° |
| 2026-05-06 09:06 | -34.98077 | 140.90921 | 36943 ft | 509 kts | 89° |
| 2026-05-06 09:06 | -34.98095 | 140.95239 | 37159 ft | 508 kts | 89° |
| 2026-05-06 09:06 | -34.98112 | 140.99500 | 37224 ft | 511 kts | 89° |
| 2026-05-06 09:07 | -34.98142 | 141.08279 | 37220 ft | 517 kts | 89° |
| 2026-05-06 09:07 | -34.98166 | 141.17001 | 37215 ft | 518 kts | 89° |
| 2026-05-06 09:08 | -34.98184 | 141.25791 | 37209 ft | 519 kts | 88° |
| 2026-05-06 09:08 | -34.98195 | 141.34583 | 37204 ft | 518 kts | 88° |
| 2026-05-06 09:09 | -34.98200 | 141.43362 | 37204 ft | 517 kts | 88° |
| 2026-05-06 09:09 | -34.98199 | 141.52128 | 37195 ft | 516 kts | 88° |
| 2026-05-06 09:10 | -34.98190 | 141.60869 | 37195 ft | 515 kts | 88° |
| 2026-05-06 09:10 | -34.98175 | 141.69591 | 37196 ft | 514 kts | 88° |
| 2026-05-06 09:11 | -34.98154 | 141.78294 | 37189 ft | 513 kts | 88° |
| 2026-05-06 09:11 | -34.98128 | 141.86985 | 37193 ft | 512 kts | 88° |
| 2026-05-06 09:12 | -34.98095 | 141.95661 | 37189 ft | 511 kts | 88° |
| 2026-05-06 09:12 | -34.98056 | 142.04329 | 37184 ft | 511 kts | 88° |
| 2026-05-06 09:13 | -34.98011 | 142.12999 | 37186 ft | 511 kts | 88° |
| 2026-05-06 09:13 | -34.97959 | 142.21666 | 37184 ft | 512 kts | 87° |
| 2026-05-06 09:14 | -34.97902 | 142.30340 | 37179 ft | 512 kts | 87° |
| 2026-05-06 09:14 | -34.97838 | 142.39032 | 37178 ft | 513 kts | 87° |
| 2026-05-06 09:15 | -34.97768 | 142.47730 | 37174 ft | 513 kts | 87° |
| 2026-05-06 09:15 | -34.97692 | 142.56432 | 37170 ft | 514 kts | 87° |
| 2026-05-06 09:16 | -34.97609 | 142.65148 | 37171 ft | 514 kts | 87° |
| 2026-05-06 09:16 | -34.97520 | 142.73876 | 37168 ft | 515 kts | 87° |
| 2026-05-06 09:17 | -34.97425 | 142.82597 | 37166 ft | 515 kts | 86° |
| 2026-05-06 09:17 | -34.97324 | 142.91325 | 37164 ft | 515 kts | 86° |
| 2026-05-06 09:18 | -34.97216 | 143.00052 | 37162 ft | 515 kts | 86° |
| 2026-05-06 09:18 | -34.97103 | 143.08774 | 37161 ft | 514 kts | 86° |
| 2026-05-06 09:19 | -34.96984 | 143.17427 | 37158 ft | 514 kts | 86° |
| 2026-05-06 09:19 | -34.96862 | 143.26144 | 37160 ft | 514 kts | 86° |
| 2026-05-06 09:20 | -34.96755 | 143.34851 | 37157 ft | 514 kts | 86° |
| 2026-05-06 09:20 | -34.96649 | 143.43559 | 37156 ft | 513 kts | 86° |
| 2026-05-06 09:21 | -34.96535 | 143.52259 | 37156 ft | 513 kts | 86° |
| 2026-05-06 09:21 | -34.96413 | 143.60957 | 37156 ft | 513 kts | 86° |
| 2026-05-06 09:22 | -34.96284 | 143.69647 | 37153 ft | 513 kts | 86° |
| 2026-05-06 09:22 | -34.96148 | 143.78341 | 37153 ft | 513 kts | 86° |
| 2026-05-06 09:23 | -34.96007 | 143.87031 | 37158 ft | 513 kts | 86° |
| 2026-05-06 09:23 | -34.95860 | 143.95721 | 37155 ft | 513 kts | 86° |
| 2026-05-06 09:24 | -34.95706 | 144.04418 | 37155 ft | 513 kts | 86° |
| 2026-05-06 09:24 | -34.95546 | 144.13112 | 37154 ft | 513 kts | 85° |
| 2026-05-06 09:25 | -34.95380 | 144.21811 | 37154 ft | 514 kts | 85° |
| 2026-05-06 09:25 | -34.95208 | 144.30515 | 37154 ft | 514 kts | 85° |
| 2026-05-06 09:26 | -34.95029 | 144.39225 | 37155 ft | 514 kts | 85° |
| 2026-05-06 09:26 | -34.94844 | 144.47931 | 37153 ft | 514 kts | 85° |
| 2026-05-06 09:27 | -34.94653 | 144.56643 | 37153 ft | 514 kts | 85° |
| 2026-05-06 09:27 | -34.94455 | 144.65354 | 37151 ft | 514 kts | 85° |
| 2026-05-06 09:28 | -34.94252 | 144.74061 | 37157 ft | 514 kts | 85° |
| 2026-05-06 09:28 | -34.94042 | 144.82758 | 37149 ft | 513 kts | 85° |
| 2026-05-06 09:29 | -34.93828 | 144.91394 | 37152 ft | 513 kts | 85° |
| 2026-05-06 09:29 | -34.93607 | 145.00075 | 37149 ft | 513 kts | 85° |
| 2026-05-06 09:30 | -34.93380 | 145.08753 | 37156 ft | 512 kts | 85° |
| 2026-05-06 09:30 | -34.93141 | 145.17426 | 37160 ft | 512 kts | 84° |
| 2026-05-06 09:31 | -34.92893 | 145.26086 | 37157 ft | 511 kts | 84° |
| 2026-05-06 09:31 | -34.92639 | 145.34745 | 37155 ft | 511 kts | 84° |
| 2026-05-06 09:32 | -34.92381 | 145.43395 | 37153 ft | 511 kts | 84° |
| 2026-05-06 09:32 | -34.92117 | 145.52044 | 37151 ft | 511 kts | 84° |
| 2026-05-06 09:33 | -34.91846 | 145.60693 | 37157 ft | 511 kts | 84° |
| 2026-05-06 09:33 | -34.91570 | 145.69335 | 37156 ft | 510 kts | 84° |
| 2026-05-06 09:34 | -34.91288 | 145.77975 | 37158 ft | 510 kts | 84° |
| 2026-05-06 09:34 | -34.90999 | 145.86616 | 37159 ft | 510 kts | 84° |
| 2026-05-06 09:35 | -34.90705 | 145.95251 | 37166 ft | 510 kts | 84° |
| 2026-05-06 09:35 | -34.90404 | 146.03887 | 37163 ft | 510 kts | 84° |
| 2026-05-06 09:36 | -34.90097 | 146.12526 | 37164 ft | 510 kts | 84° |
| 2026-05-06 09:36 | -34.89785 | 146.21162 | 37166 ft | 510 kts | 84° |
| 2026-05-06 09:37 | -34.89466 | 146.29797 | 37159 ft | 510 kts | 84° |
| 2026-05-06 09:37 | -34.89143 | 146.38372 | 37165 ft | 510 kts | 84° |
| 2026-05-06 09:38 | -34.88811 | 146.47011 | 37162 ft | 510 kts | 84° |
| 2026-05-06 09:38 | -34.88474 | 146.55644 | 37162 ft | 510 kts | 84° |
| 2026-05-06 09:39 | -34.88131 | 146.64275 | 37162 ft | 510 kts | 83° |
| 2026-05-06 09:39 | -34.87782 | 146.72899 | 37164 ft | 510 kts | 83° |
| 2026-05-06 09:40 | -34.87427 | 146.81526 | 37163 ft | 510 kts | 83° |
| 2026-05-06 09:40 | -34.86882 | 146.94460 | 37163 ft | 510 kts | 83° |
| 2026-05-06 09:41 | -34.86512 | 147.03073 | 37166 ft | 509 kts | 83° |
| 2026-05-06 09:41 | -34.86136 | 147.11685 | 37167 ft | 509 kts | 83° |
| 2026-05-06 09:42 | -34.85754 | 147.20294 | 37167 ft | 509 kts | 83° |
| 2026-05-06 09:42 | -34.85366 | 147.28897 | 37166 ft | 509 kts | 83° |
| 2026-05-06 09:43 | -34.84972 | 147.37491 | 37171 ft | 508 kts | 83° |
| 2026-05-06 09:43 | -34.84576 | 147.46023 | 37164 ft | 508 kts | 83° |
| 2026-05-06 09:44 | -34.84171 | 147.54594 | 37171 ft | 507 kts | 83° |
| 2026-05-06 09:44 | -34.83761 | 147.63158 | 37166 ft | 507 kts | 83° |
| 2026-05-06 09:45 | -34.83345 | 147.71712 | 37165 ft | 506 kts | 83° |
| 2026-05-06 09:45 | -34.82923 | 147.80269 | 37168 ft | 506 kts | 83° |
| 2026-05-06 09:46 | -34.82496 | 147.88812 | 37167 ft | 506 kts | 83° |
| 2026-05-06 09:46 | -34.82062 | 147.97347 | 37161 ft | 505 kts | 83° |
| 2026-05-06 09:47 | -34.81624 | 148.05867 | 37169 ft | 505 kts | 83° |
| 2026-05-06 09:47 | -34.81179 | 148.14394 | 37169 ft | 505 kts | 83° |
| 2026-05-06 09:48 | -34.80729 | 148.22918 | 37159 ft | 505 kts | 83° |
| 2026-05-06 09:48 | -34.80272 | 148.31441 | 37165 ft | 505 kts | 83° |
| 2026-05-06 09:49 | -34.79810 | 148.39972 | 37160 ft | 505 kts | 82° |
| 2026-05-06 09:49 | -34.79341 | 148.48502 | 37162 ft | 505 kts | 82° |
| 2026-05-06 09:50 | -34.78866 | 148.57037 | 37154 ft | 506 kts | 82° |
| 2026-05-06 09:50 | -34.78385 | 148.65569 | 37155 ft | 506 kts | 82° |
| 2026-05-06 09:51 | -34.77898 | 148.74106 | 37159 ft | 506 kts | 82° |
| 2026-05-06 09:51 | -34.77405 | 148.82644 | 37155 ft | 506 kts | 82° |
| 2026-05-06 09:52 | -34.76905 | 148.91182 | 37156 ft | 506 kts | 82° |
| 2026-05-06 09:52 | -34.76486 | 148.98281 | 37155 ft | 506 kts | 82° |
| 2026-05-06 09:53 | -34.75975 | 149.06828 | 37145 ft | 507 kts | 82° |
| 2026-05-06 09:53 | -34.75459 | 149.15367 | 37148 ft | 507 kts | 82° |
| 2026-05-06 09:54 | -34.74937 | 149.23911 | 37147 ft | 507 kts | 82° |
| 2026-05-06 09:54 | -34.74672 | 149.28202 | 36786 ft | 512 kts | 82° |
| 2026-05-06 09:54 | -34.74404 | 149.32522 | 36218 ft | 511 kts | 82° |
| 2026-05-06 09:55 | -34.73951 | 149.36786 | 35619 ft | 505 kts | 74° |
| 2026-05-06 09:55 | -34.73033 | 149.40882 | 34990 ft | 500 kts | 66° |
| 2026-05-06 09:55 | -34.71668 | 149.44728 | 34349 ft | 493 kts | 57° |
| 2026-05-06 09:55 | -34.70041 | 149.48391 | 33630 ft | 492 kts | 56° |
| 2026-05-06 09:56 | -34.68394 | 149.52038 | 32865 ft | 493 kts | 56° |
| 2026-05-06 09:56 | -34.66752 | 149.55687 | 32129 ft | 493 kts | 57° |
| 2026-05-06 09:56 | -34.65119 | 149.59352 | 31378 ft | 493 kts | 57° |
| 2026-05-06 09:56 | -34.63520 | 149.62979 | 30638 ft | 494 kts | 58° |
| 2026-05-06 09:57 | -34.61905 | 149.66661 | 29775 ft | 494 kts | 58° |
| 2026-05-06 09:57 | -34.60291 | 149.70347 | 28847 ft | 494 kts | 58° |
| 2026-05-06 09:57 | -34.58681 | 149.74024 | 27967 ft | 493 kts | 58° |
| 2026-05-06 09:57 | -34.57070 | 149.77698 | 27035 ft | 493 kts | 58° |
| 2026-05-06 09:58 | -34.55456 | 149.81371 | 26063 ft | 493 kts | 58° |
| 2026-05-06 09:58 | -34.53839 | 149.85044 | 25230 ft | 492 kts | 58° |
| 2026-05-06 09:58 | -34.52240 | 149.88678 | 24563 ft | 485 kts | 58° |
| 2026-05-06 09:58 | -34.50658 | 149.92263 | 23886 ft | 480 kts | 58° |
| 2026-05-06 09:59 | -34.49095 | 149.95802 | 23260 ft | 472 kts | 58° |
| 2026-05-06 09:59 | -34.47559 | 149.99276 | 22611 ft | 465 kts | 58° |
| 2026-05-06 09:59 | -34.46040 | 150.02706 | 21939 ft | 459 kts | 58° |
| 2026-05-06 09:59 | -34.44540 | 150.06090 | 21246 ft | 454 kts | 58° |
| 2026-05-06 10:00 | -34.43051 | 150.09444 | 20558 ft | 450 kts | 59° |
| 2026-05-06 10:00 | -34.41577 | 150.12762 | 19901 ft | 446 kts | 58° |
| 2026-05-06 10:00 | -34.40114 | 150.16052 | 19234 ft | 442 kts | 59° |
| 2026-05-06 10:00 | -34.38656 | 150.19328 | 18558 ft | 440 kts | 59° |
| 2026-05-06 10:01 | -34.37210 | 150.22577 | 17815 ft | 438 kts | 59° |
| 2026-05-06 10:01 | -34.35770 | 150.25807 | 17115 ft | 434 kts | 59° |
| 2026-05-06 10:01 | -34.34345 | 150.29004 | 16435 ft | 430 kts | 59° |
| 2026-05-06 10:01 | -34.32932 | 150.32170 | 15783 ft | 426 kts | 59° |
| 2026-05-06 10:02 | -34.31529 | 150.35311 | 15123 ft | 422 kts | 59° |
| 2026-05-06 10:02 | -34.30137 | 150.38423 | 14482 ft | 419 kts | 59° |
| 2026-05-06 10:02 | -34.28757 | 150.41506 | 13825 ft | 416 kts | 59° |
| 2026-05-06 10:02 | -34.27384 | 150.44572 | 13093 ft | 413 kts | 59° |
| 2026-05-06 10:03 | -34.26023 | 150.47613 | 12407 ft | 410 kts | 59° |
| 2026-05-06 10:03 | -34.24677 | 150.50625 | 11752 ft | 406 kts | 60° |
| 2026-05-06 10:03 | -34.23345 | 150.53602 | 11325 ft | 396 kts | 60° |
| 2026-05-06 10:03 | -34.22062 | 150.56471 | 11164 ft | 381 kts | 60° |
| 2026-05-06 10:04 | -34.20824 | 150.59236 | 10991 ft | 367 kts | 60° |
| 2026-05-06 10:04 | -34.19629 | 150.61901 | 10831 ft | 355 kts | 60° |
| 2026-05-06 10:04 | -34.18471 | 150.64478 | 10680 ft | 343 kts | 60° |
| 2026-05-06 10:04 | -34.17349 | 150.66975 | 10543 ft | 333 kts | 60° |
| 2026-05-06 10:05 | -34.16261 | 150.69392 | 10404 ft | 323 kts | 60° |
| 2026-05-06 10:05 | -34.15204 | 150.71740 | 10265 ft | 314 kts | 60° |
| 2026-05-06 10:05 | -34.14177 | 150.74020 | 10145 ft | 305 kts | 60° |
| 2026-05-06 10:05 | -34.13176 | 150.76242 | 9929 ft | 299 kts | 60° |
| 2026-05-06 10:06 | -34.12183 | 150.78443 | 9627 ft | 298 kts | 60° |
| 2026-05-06 10:06 | -34.11196 | 150.80628 | 9331 ft | 295 kts | 60° |
| 2026-05-06 10:06 | -34.10217 | 150.82797 | 9041 ft | 293 kts | 60° |
| 2026-05-06 10:06 | -34.09252 | 150.84939 | 8806 ft | 289 kts | 60° |
| 2026-05-06 10:07 | -34.08302 | 150.87051 | 8572 ft | 285 kts | 60° |
| 2026-05-06 10:07 | -34.07375 | 150.89111 | 8349 ft | 281 kts | 60° |
| 2026-05-06 10:07 | -34.06449 | 150.91169 | 8125 ft | 278 kts | 60° |
| 2026-05-06 10:07 | -34.05529 | 150.93210 | 7914 ft | 276 kts | 59° |
| 2026-05-06 10:08 | -34.04614 | 150.95238 | 7693 ft | 274 kts | 59° |
| 2026-05-06 10:08 | -34.03704 | 150.97255 | 7475 ft | 273 kts | 60° |
| 2026-05-06 10:08 | -34.03145 | 150.99430 | 7233 ft | 275 kts | 87° |
| 2026-05-06 10:08 | -34.03501 | 151.01664 | 7031 ft | 273 kts | 116° |
| 2026-05-06 10:09 | -34.04582 | 151.03511 | 6825 ft | 267 kts | 134° |
| 2026-05-06 10:09 | -34.05836 | 151.05082 | 6641 ft | 254 kts | 135° |
| 2026-05-06 10:09 | -34.07050 | 151.06586 | 6413 ft | 246 kts | 135° |
| 2026-05-06 10:09 | -34.08388 | 151.07773 | 6193 ft | 234 kts | 160° |
| 2026-05-06 10:10 | -34.09905 | 151.08304 | 6032 ft | 225 kts | 170° |
| 2026-05-06 10:10 | -34.11441 | 151.08680 | 5840 ft | 226 kts | 171° |
| 2026-05-06 10:10 | -34.12983 | 151.09051 | 5653 ft | 226 kts | 171° |
| 2026-05-06 10:10 | -34.14524 | 151.09434 | 5468 ft | 226 kts | 171° |
| 2026-05-06 10:11 | -34.16051 | 151.09822 | 5280 ft | 223 kts | 171° |
| 2026-05-06 10:11 | -34.17530 | 151.10322 | 5075 ft | 222 kts | 153° |
| 2026-05-06 10:11 | -34.18518 | 151.11695 | 4938 ft | 220 kts | 109° |
| 2026-05-06 10:11 | -34.18529 | 151.13505 | 4928 ft | 219 kts | 75° |
| 2026-05-06 10:12 | -34.18157 | 151.15328 | 4811 ft | 229 kts | 76° |
| 2026-05-06 10:12 | -34.17747 | 151.17195 | 4544 ft | 230 kts | 69° |
| 2026-05-06 10:12 | -34.17008 | 151.18859 | 4253 ft | 221 kts | 45° |
| 2026-05-06 10:12 | -34.15796 | 151.19883 | 4013 ft | 208 kts | 24° |
| 2026-05-06 10:13 | -34.14520 | 151.20643 | 3743 ft | 203 kts | 23° |
| 2026-05-06 10:13 | -34.13228 | 151.21393 | 3333 ft | 204 kts | 23° |
| 2026-05-06 10:13 | -34.11892 | 151.21794 | 3043 ft | 195 kts | 353° |
| 2026-05-06 10:13 | -34.10574 | 151.21590 | 2809 ft | 189 kts | 352° |
| 2026-05-06 10:14 | -34.09313 | 151.21384 | 2571 ft | 177 kts | 349° |
| 2026-05-06 10:14 | -34.08122 | 151.21107 | 2330 ft | 173 kts | 348° |
| 2026-05-06 10:14 | -34.06923 | 151.20799 | 2110 ft | 180 kts | 348° |
| 2026-05-06 10:14 | -34.05700 | 151.20482 | 1863 ft | 179 kts | 348° |
| 2026-05-06 10:15 | -34.04538 | 151.20179 | 1625 ft | 167 kts | 348° |
| 2026-05-06 10:15 | -34.03449 | 151.19894 | 1422 ft | 150 kts | 348° |
| 2026-05-06 10:15 | -34.02489 | 151.19644 | 1259 ft | 132 kts | 348° |
| 2026-05-06 10:15 | -34.01593 | 151.19411 | 1061 ft | 130 kts | 349° |
| 2026-05-06 10:16 | -34.00703 | 151.19180 | 893 ft | 132 kts | 349° |
| 2026-05-06 10:16 | -33.99809 | 151.18946 | 712 ft | 132 kts | 349° |
| 2026-05-06 10:16 | -33.98912 | 151.18713 | 552 ft | 133 kts | 349° |
| 2026-05-06 10:16 | -33.97998 | 151.18474 | 383 ft | 134 kts | 349° |
| 2026-05-06 10:17 | -33.97115 | 151.18233 | 241 ft | 132 kts | 349° |
| 2026-05-06 10:17 | -33.96244 | 151.18015 | 51 ft | 125 kts | 349° |
| 2026-05-06 10:17 | -33.95516 | 151.17829 | 28 ft | 79 kts | 348° |
| 2026-05-06 10:17 | -33.95163 | 151.17738 | 27 ft | 39 kts | 348° |
| 2026-05-06 10:18 | -33.94914 | 151.17672 | 28 ft | 34 kts | 348° |
| 2026-05-06 10:18 | -33.94713 | 151.17642 | 28 ft | 25 kts | 359° |
| 2026-05-06 10:18 | -33.94579 | 151.17661 | 28 ft | 8 kts | 13° |
| 2026-05-06 10:18 | -33.94527 | 151.17678 | 29 ft | 8 kts | 16° |
| 2026-05-06 10:19 | -33.94515 | 151.17682 | 29 ft | 0 kts | 17° |
| 2026-05-06 10:19 | -33.94514 | 151.17682 | 29 ft | 1 kts | 17° |
| 2026-05-06 10:20 | -33.94501 | 151.17687 | 29 ft | 3 kts | 18° |
| 2026-05-06 10:20 | -33.94482 | 151.17695 | 29 ft | 3 kts | 18° |
| 2026-05-06 10:20 | -33.94464 | 151.17702 | 29 ft | 3 kts | 19° |
| 2026-05-06 10:20 | -33.94456 | 151.17705 | 29 ft | 0 kts | 19° |
| 2026-05-06 10:21 | -33.94452 | 151.17707 | 29 ft | 3 kts | 19° |
| 2026-05-06 10:21 | -33.94420 | 151.17720 | 29 ft | 6 kts | 19° |
| 2026-05-06 10:21 | -33.94378 | 151.17736 | 29 ft | 7 kts | 13° |
| 2026-05-06 10:21 | -33.94320 | 151.17731 | 29 ft | 9 kts | 345° |
| 2026-05-06 10:22 | -33.94263 | 151.17713 | 28 ft | 8 kts | 345° |
| 2026-05-06 10:22 | -33.94203 | 151.17695 | 28 ft | 9 kts | 346° |
| 2026-05-06 10:22 | -33.94138 | 151.17675 | 28 ft | 11 kts | 346° |
| 2026-05-06 10:22 | -33.94037 | 151.17647 | 27 ft | 18 kts | 347° |
| 2026-05-06 10:23 | -33.93911 | 151.17613 | 28 ft | 19 kts | 347° |
| 2026-05-06 10:23 | -33.93800 | 151.17584 | 28 ft | 10 kts | 347° |
| 2026-05-06 10:23 | -33.93789 | 151.17581 | 28 ft | 0 kts | 347° |
| 2026-05-06 10:24 | -33.93740 | 151.17569 | 28 ft | 12 kts | 348° |
| 2026-05-06 10:24 | -33.93658 | 151.17584 | 28 ft | 12 kts | 45° |
| 2026-05-06 10:24 | -33.93644 | 151.17681 | 29 ft | 12 kts | 98° |
| 2026-05-06 10:24 | -33.93657 | 151.17774 | 29 ft | 10 kts | 94° |
| 2026-05-06 10:25 | -33.93606 | 151.17819 | 29 ft | 10 kts | 9° |
| 2026-05-06 10:25 | -33.93571 | 151.17839 | 29 ft | 4 kts | 64° |
| 2026-05-06 10:25 | -33.93572 | 151.17871 | 29 ft | 3 kts | 98° |
| 2026-05-06 10:25 | -33.93575 | 151.17892 | 29 ft | 2 kts | 101° |
| 2026-05-06 10:26 | -33.93576 | 151.17900 | 29 ft | 0 kts | 101° |